createdAt,value
2018-07-16T00:02:10.243Z,19.30
2018-07-16T00:04:37.667Z,19.10
2018-07-16T00:07:05.492Z,19.20
2018-07-16T00:09:33.184Z,19.10
2018-07-16T00:12:00.758Z,19.10
2018-07-16T00:14:28.249Z,19.10
2018-07-16T00:16:55.664Z,19.00
2018-07-16T00:21:50.487Z,18.80
2018-07-16T00:24:17.895Z,18.90
2018-07-16T00:26:45.304Z,18.80
2018-07-16T00:29:12.711Z,18.80
2018-07-16T00:31:40.111Z,18.80
2018-07-16T00:34:07.871Z,18.70
2018-07-16T00:36:35.295Z,18.70
2018-07-16T00:39:02.917Z,18.60
2018-07-16T00:41:30.279Z,18.60
2018-07-16T00:43:57.704Z,18.50
2018-07-16T00:46:25.096Z,18.50
2018-07-16T00:48:52.487Z,18.50
2018-07-16T00:51:19.897Z,18.50
2018-07-16T00:53:47.364Z,18.40
2018-07-16T00:56:14.856Z,18.40
2018-07-16T01:01:09.796Z,18.30
2018-07-16T01:03:37.195Z,18.30
2018-07-16T01:06:04.603Z,18.30
2018-07-16T01:08:32.068Z,18.20
2018-07-16T01:13:27.000Z,18.20
2018-07-16T01:15:54.431Z,18.20
2018-07-16T01:20:49.260Z,18.10
2018-07-16T01:25:44.303Z,18.00
2018-07-16T01:28:11.727Z,18.00
2018-07-16T01:30:39.222Z,18.00
2018-07-16T01:33:06.619Z,18.00
2018-07-16T01:35:34.044Z,18.00
2018-07-16T01:38:01.453Z,17.90
2018-07-16T01:40:28.864Z,17.90
2018-07-16T01:42:56.238Z,17.90
2018-07-16T01:47:51.149Z,17.90
2018-07-16T01:50:18.602Z,17.80
2018-07-16T01:52:45.984Z,17.80
2018-07-16T01:55:13.388Z,17.80
2018-07-16T01:57:40.812Z,17.70
2018-07-16T02:00:08.265Z,17.80
2018-07-16T02:02:35.683Z,17.80
2018-07-16T02:05:03.099Z,17.70
2018-07-16T02:07:30.479Z,17.60
2018-07-16T02:09:57.917Z,17.60
2018-07-16T02:12:25.311Z,17.60
2018-07-16T02:14:52.735Z,17.60
2018-07-16T02:17:20.156Z,17.50
2018-07-16T02:19:47.592Z,17.50
2018-07-16T02:22:15.004Z,17.50
2018-07-16T02:24:42.559Z,17.50
2018-07-16T02:27:09.955Z,17.50
2018-07-16T02:29:37.352Z,17.40
2018-07-16T02:32:04.739Z,17.40
2018-07-16T02:34:32.139Z,17.40
2018-07-16T02:36:59.540Z,17.40
2018-07-16T02:39:26.933Z,17.30
2018-07-16T02:41:54.307Z,17.30
2018-07-16T02:44:21.736Z,17.20
2018-07-16T02:46:49.129Z,17.20
2018-07-16T02:49:17.323Z,17.20
2018-07-16T02:51:44.730Z,17.20
2018-07-16T02:54:12.121Z,17.10
2018-07-16T02:56:39.535Z,17.20
2018-07-16T02:59:06.964Z,17.10
2018-07-16T03:01:34.472Z,17.20
2018-07-16T03:08:56.795Z,17.10
2018-07-16T03:11:24.202Z,17.10
2018-07-16T03:13:51.627Z,17.00
2018-07-16T03:16:19.043Z,17.00
2018-07-16T03:18:46.510Z,16.90
2018-07-16T03:21:13.919Z,16.90
2018-07-16T03:23:41.320Z,16.90
2018-07-16T03:26:08.740Z,16.80
2018-07-16T03:31:03.668Z,16.80
2018-07-16T03:33:31.087Z,16.80
2018-07-16T03:35:58.567Z,16.70
2018-07-16T03:38:26.125Z,16.80
2018-07-16T03:40:53.536Z,16.70
2018-07-16T03:43:20.924Z,16.80
2018-07-16T03:45:48.393Z,16.70
2018-07-16T03:48:15.789Z,16.70
2018-07-16T03:50:43.219Z,16.70
2018-07-16T03:53:10.615Z,16.70
2018-07-16T03:58:05.545Z,16.70
2018-07-16T04:00:32.975Z,16.60
2018-07-16T04:03:00.377Z,16.60
2018-07-16T04:05:27.795Z,16.70
2018-07-16T04:10:22.585Z,16.70
2018-07-16T04:12:49.986Z,16.70
2018-07-16T04:15:17.433Z,16.70
2018-07-16T04:17:44.840Z,16.70
2018-07-16T04:20:12.275Z,16.70
2018-07-16T04:22:39.696Z,16.80
2018-07-16T04:25:07.109Z,16.70
2018-07-16T04:27:34.518Z,16.80
2018-07-16T04:30:02.473Z,16.80
2018-07-16T04:32:29.877Z,16.90
2018-07-16T04:34:57.351Z,17.00
2018-07-16T04:37:24.764Z,17.00
2018-07-16T04:39:52.236Z,17.10
2018-07-16T04:42:19.592Z,17.10
2018-07-16T04:44:47.020Z,17.20
2018-07-16T04:47:14.520Z,17.30
2018-07-16T04:49:41.921Z,17.30
2018-07-16T04:52:09.395Z,17.40
2018-07-16T04:54:36.832Z,17.40
2018-07-16T04:57:04.293Z,17.50
2018-07-16T04:59:31.676Z,17.60
2018-07-16T05:01:59.093Z,17.60
2018-07-16T05:04:26.664Z,17.70
2018-07-16T05:06:54.108Z,17.90
2018-07-16T05:09:21.624Z,18.30
2018-07-16T05:11:49.111Z,19.20
2018-07-16T05:14:16.516Z,20.20
2018-07-16T05:16:44.012Z,21.20
2018-07-16T05:19:11.423Z,22.20
2018-07-16T05:21:38.887Z,23.00
2018-07-16T05:24:06.377Z,23.60
2018-07-16T05:26:33.751Z,24.20
2018-07-16T05:29:01.185Z,24.60
2018-07-16T05:31:28.655Z,25.10
2018-07-16T05:33:56.044Z,25.60
2018-07-16T05:36:23.665Z,26.10
2018-07-16T05:38:51.147Z,26.40
2018-07-16T05:41:18.583Z,26.50
2018-07-16T05:43:45.999Z,26.30
2018-07-16T05:46:13.441Z,25.90
2018-07-16T05:48:40.913Z,25.50
2018-07-16T05:51:08.390Z,25.20
2018-07-16T05:53:35.787Z,24.80
2018-07-16T05:56:03.295Z,24.30
2018-07-16T06:00:58.116Z,23.40
2018-07-16T06:03:25.532Z,23.00
2018-07-16T06:05:53.047Z,22.80
2018-07-16T06:08:20.475Z,22.60
2018-07-16T06:10:47.888Z,22.40
2018-07-16T06:13:15.315Z,22.30
2018-07-16T06:15:42.807Z,22.10
2018-07-16T06:18:10.188Z,21.80
2018-07-16T06:20:37.718Z,21.60
2018-07-16T06:23:05.196Z,21.60
2018-07-16T06:25:33.639Z,21.60
2018-07-16T06:28:01.045Z,21.60
2018-07-16T06:30:28.484Z,21.60
2018-07-16T06:32:55.997Z,21.60
2018-07-16T06:35:23.421Z,21.60
2018-07-16T06:42:45.825Z,21.60
2018-07-16T06:45:13.239Z,21.70
2018-07-16T06:50:08.115Z,21.70
2018-07-16T06:52:36.148Z,21.80
2018-07-16T06:55:04.248Z,21.90
2018-07-16T06:57:31.610Z,22.00
2018-07-16T06:59:59.032Z,22.00
2018-07-16T07:02:26.594Z,22.10
2018-07-16T07:04:53.891Z,22.10
2018-07-16T07:07:21.320Z,22.20
2018-07-16T07:09:48.779Z,22.20
2018-07-16T07:12:16.219Z,22.20
2018-07-16T07:14:43.644Z,22.30
2018-07-16T07:17:11.228Z,22.40
2018-07-16T07:19:38.665Z,22.40
2018-07-16T07:22:06.088Z,22.50
2018-07-16T07:24:33.646Z,22.50
2018-07-16T07:27:01.044Z,22.60
2018-07-16T07:29:28.471Z,22.70
2018-07-16T07:34:53.407Z,22.80
2018-07-16T07:37:20.820Z,22.90
2018-07-16T07:39:49.348Z,23.10
2018-07-16T07:42:17.937Z,23.30
2018-07-16T07:44:45.492Z,23.40
2018-07-16T07:47:13.111Z,23.50
2018-07-16T07:49:40.600Z,23.50
2018-07-16T07:52:09.148Z,23.50
2018-07-16T07:54:36.793Z,23.60
2018-07-16T07:57:04.499Z,23.80
2018-07-16T07:59:32.056Z,23.80
2018-07-16T08:01:59.906Z,23.70
2018-07-16T08:04:27.302Z,23.80
2018-07-16T08:07:00.451Z,23.80
2018-07-16T08:09:27.852Z,24.00
2018-07-16T08:11:55.267Z,24.10
2018-07-16T08:14:23.756Z,24.20
2018-07-16T08:16:51.198Z,24.30
2018-07-16T08:19:18.622Z,24.30
2018-07-16T08:21:46.066Z,24.40
2018-07-16T08:24:13.467Z,24.50
2018-07-16T08:26:40.890Z,24.60
2018-07-16T08:31:35.756Z,24.80
2018-07-16T08:34:03.206Z,24.80
2018-07-16T08:36:30.614Z,24.90
2018-07-16T08:38:58.147Z,24.90
2018-07-16T08:41:25.777Z,24.90
2018-07-16T08:43:53.263Z,25.00
2018-07-16T08:46:20.725Z,25.00
2018-07-16T08:48:48.115Z,25.10
2018-07-16T08:51:15.535Z,25.20
2018-07-16T08:53:42.962Z,25.30
2018-07-16T08:56:10.396Z,25.30
2018-07-16T08:58:37.915Z,25.40
2018-07-16T09:01:05.387Z,25.40
2018-07-16T09:03:32.903Z,25.50
2018-07-16T09:06:04.229Z,25.50
2018-07-16T09:08:32.643Z,25.50
2018-07-16T09:11:00.139Z,25.60
2018-07-16T09:13:27.533Z,25.70
2018-07-16T09:15:54.915Z,25.80
2018-07-16T09:18:22.330Z,25.90
2018-07-16T09:20:49.796Z,25.90
2018-07-16T09:25:44.815Z,25.90
2018-07-16T09:28:12.295Z,25.90
2018-07-16T09:30:39.823Z,26.00
2018-07-16T09:33:07.224Z,26.10
2018-07-16T09:35:34.636Z,26.20
2018-07-16T09:38:02.015Z,26.30
2018-07-16T09:40:30.599Z,26.30
2018-07-16T09:42:58.029Z,26.50
2018-07-16T09:45:25.545Z,26.70
2018-07-16T09:47:53.088Z,26.70
2018-07-16T09:50:20.551Z,26.70
2018-07-16T09:52:48.007Z,26.90
2018-07-16T09:55:15.749Z,26.90
2018-07-16T09:57:43.212Z,27.00
2018-07-16T10:00:10.717Z,27.10
2018-07-16T10:02:38.208Z,27.20
2018-07-16T10:05:05.817Z,27.40
2018-07-16T10:07:33.243Z,27.60
2018-07-16T10:10:00.729Z,27.70
2018-07-16T10:12:28.180Z,27.90
2018-07-16T10:14:55.640Z,28.30
2018-07-16T10:17:23.063Z,28.70
2018-07-16T10:19:50.526Z,29.10
2018-07-16T10:22:17.975Z,29.30
2018-07-16T10:27:13.075Z,30.00
2018-07-16T10:29:43.907Z,30.20
2018-07-16T10:32:11.327Z,30.20
2018-07-16T10:34:40.905Z,30.40
2018-07-16T10:37:08.419Z,30.50
2018-07-16T10:39:35.979Z,30.70
2018-07-16T10:42:03.549Z,30.90
2018-07-16T10:44:32.049Z,30.90
2018-07-16T10:46:59.487Z,30.70
2018-07-16T10:49:27.001Z,30.80
2018-07-16T10:51:54.536Z,30.90
2018-07-16T10:54:21.940Z,30.90
2018-07-16T10:56:49.368Z,31.30
2018-07-16T10:59:16.823Z,31.60
2018-07-16T11:01:44.383Z,32.10
2018-07-16T11:09:07.013Z,32.00
2018-07-16T11:11:36.540Z,32.10
2018-07-16T11:14:04.062Z,31.90
2018-07-16T11:16:35.311Z,32.00
2018-07-16T11:19:02.751Z,32.20
2018-07-16T11:21:30.212Z,32.10
2018-07-16T11:23:57.674Z,32.10
2018-07-16T11:26:25.207Z,32.20
2018-07-16T11:28:52.614Z,32.30
2018-07-16T11:31:20.076Z,32.60
2018-07-16T11:33:47.507Z,32.70
2018-07-16T11:36:14.943Z,32.80
2018-07-16T11:38:42.394Z,33.10
2018-07-16T11:43:37.347Z,33.10
2018-07-16T11:46:04.952Z,33.10
2018-07-16T11:48:32.346Z,33.00
2018-07-16T11:50:59.743Z,33.10
2018-07-16T11:53:27.176Z,33.40
2018-07-16T11:55:54.664Z,33.50
2018-07-16T12:00:49.958Z,33.20
2018-07-16T12:03:17.526Z,33.30
2018-07-16T12:05:45.096Z,33.40
2018-07-16T12:08:12.543Z,33.30
2018-07-16T12:13:08.692Z,33.40
2018-07-16T12:15:37.228Z,33.50
2018-07-16T12:18:04.703Z,33.70
2018-07-16T12:20:32.159Z,33.90
2018-07-16T12:22:59.664Z,33.90
2018-07-16T12:25:27.106Z,33.80
2018-07-16T12:27:54.536Z,33.90
2018-07-16T12:30:22.017Z,34.10
2018-07-16T12:32:49.501Z,34.10
2018-07-16T12:35:16.900Z,34.20
2018-07-16T12:37:44.417Z,34.20
2018-07-16T12:40:11.861Z,34.10
2018-07-16T12:42:39.296Z,34.10
2018-07-16T12:45:06.778Z,33.90
2018-07-16T12:47:35.323Z,33.70
2018-07-16T12:50:02.899Z,33.60
2018-07-16T12:52:30.389Z,33.50
2018-07-16T12:54:58.248Z,33.60
2018-07-16T12:57:25.815Z,33.70
2018-07-16T12:59:53.077Z,33.70
2018-07-16T13:02:20.319Z,33.80
2018-07-16T13:04:47.739Z,33.90
2018-07-16T13:07:15.360Z,34.00
2018-07-16T13:09:42.714Z,34.00
2018-07-16T13:12:10.003Z,33.70
2018-07-16T13:14:37.372Z,33.70
2018-07-16T13:17:04.741Z,33.70
2018-07-16T13:19:32.000Z,33.70
2018-07-16T13:21:59.322Z,33.70
2018-07-16T13:24:26.535Z,33.70
2018-07-16T13:26:53.944Z,33.70
2018-07-16T13:29:21.187Z,33.90
2018-07-16T13:31:48.477Z,33.90
2018-07-16T13:34:16.114Z,33.90
2018-07-16T13:36:43.376Z,34.00
2018-07-16T13:39:11.088Z,34.10
2018-07-16T13:41:38.349Z,34.00
2018-07-16T13:44:05.638Z,34.00
2018-07-16T13:46:33.322Z,34.00
2018-07-16T13:49:00.604Z,33.90
2018-07-16T13:51:27.904Z,33.80
2018-07-16T13:53:55.147Z,33.80
2018-07-16T13:56:22.384Z,33.90
2018-07-16T13:58:49.596Z,33.90
2018-07-16T14:03:44.416Z,33.70
2018-07-16T14:06:12.755Z,33.70
2018-07-16T14:08:39.984Z,33.80
2018-07-16T14:11:07.368Z,33.90
2018-07-16T14:13:34.631Z,33.80
2018-07-16T14:16:01.903Z,33.70
2018-07-16T14:20:56.471Z,33.50
2018-07-16T14:23:23.743Z,33.50
2018-07-16T14:25:50.911Z,33.40
2018-07-16T14:28:18.104Z,33.40
2018-07-16T14:33:12.583Z,33.50
2018-07-16T14:35:40.007Z,33.30
2018-07-16T14:38:07.455Z,33.10
2018-07-16T14:40:35.924Z,32.90
2018-07-16T14:45:31.060Z,33.10
2018-07-16T14:47:58.452Z,33.40
2018-07-16T14:50:26.020Z,33.50
2018-07-16T14:52:53.376Z,33.60
2018-07-16T14:57:48.379Z,33.60
2018-07-16T15:02:43.571Z,33.60
2018-07-16T15:05:11.007Z,33.60
2018-07-16T15:07:38.467Z,33.60
2018-07-16T15:10:05.955Z,33.60
2018-07-16T15:12:33.364Z,33.50
2018-07-16T15:15:00.822Z,33.50
2018-07-16T15:17:28.304Z,33.50
2018-07-16T15:19:55.811Z,33.50
2018-07-16T15:22:23.210Z,33.60
2018-07-16T15:24:51.765Z,33.60
2018-07-16T15:29:46.747Z,33.50
2018-07-16T15:32:14.128Z,33.40
2018-07-16T15:34:41.539Z,33.30
2018-07-16T15:37:09.003Z,33.20
2018-07-16T15:39:36.633Z,33.10
2018-07-16T15:42:04.060Z,33.00
2018-07-16T15:44:31.519Z,33.00
2018-07-16T15:46:58.977Z,33.00
2018-07-16T15:51:56.030Z,32.90
2018-07-16T15:54:24.587Z,32.80
2018-07-16T15:56:53.020Z,32.70
2018-07-16T15:59:20.499Z,32.60
2018-07-16T16:01:47.939Z,32.40
2018-07-16T16:04:15.339Z,32.40
2018-07-16T16:06:42.816Z,32.20
2018-07-16T16:09:10.271Z,32.10
2018-07-16T16:11:37.760Z,32.00
2018-07-16T16:16:33.181Z,31.80
2018-07-16T16:19:00.607Z,31.60
2018-07-16T16:21:30.338Z,31.50
2018-07-16T16:23:58.356Z,31.40
2018-07-16T16:26:25.913Z,31.40
2018-07-16T16:28:53.294Z,31.40
2018-07-16T16:31:20.863Z,31.30
2018-07-16T16:33:48.312Z,31.30
2018-07-16T16:36:16.022Z,31.20
2018-07-16T16:41:10.848Z,31.00
2018-07-16T16:43:40.629Z,30.80
2018-07-16T16:46:08.275Z,30.80
2018-07-16T16:48:38.369Z,30.70
2018-07-16T16:51:07.836Z,30.60
2018-07-16T16:53:35.425Z,30.50
2018-07-16T16:56:03.022Z,30.50
2018-07-16T16:58:31.292Z,30.40
2018-07-16T17:00:58.861Z,30.40
2018-07-16T17:03:27.483Z,30.30
2018-07-16T17:05:55.714Z,30.40
2018-07-16T17:08:23.662Z,30.30
2018-07-16T17:10:51.393Z,30.40
2018-07-16T17:13:19.145Z,30.40
2018-07-16T17:15:46.665Z,30.40
2018-07-16T17:18:14.308Z,30.30
2018-07-16T17:20:41.752Z,30.30
2018-07-16T17:23:09.368Z,30.40
2018-07-16T17:25:37.212Z,30.50
2018-07-16T17:30:32.451Z,30.40
2018-07-16T17:32:59.995Z,30.40
2018-07-16T17:35:27.449Z,30.30
2018-07-16T17:37:54.978Z,30.30
2018-07-16T17:40:22.658Z,30.30
2018-07-16T17:45:17.619Z,30.20
2018-07-16T17:47:44.987Z,30.20
2018-07-16T17:50:12.237Z,30.20
2018-07-16T17:52:39.508Z,30.10
2018-07-16T17:55:06.819Z,30.10
2018-07-16T17:57:34.066Z,30.10
2018-07-16T18:00:01.354Z,30.00
2018-07-16T18:02:28.612Z,30.00
2018-07-16T18:04:55.918Z,29.90
2018-07-16T18:07:23.168Z,29.90
2018-07-16T18:09:51.637Z,29.70
2018-07-16T18:12:18.983Z,29.70
2018-07-16T18:14:47.335Z,29.60
2018-07-16T18:17:15.692Z,29.60
2018-07-16T18:19:43.056Z,29.50
2018-07-16T18:22:11.315Z,29.50
2018-07-16T18:24:38.567Z,29.50
2018-07-16T18:27:05.863Z,29.40
2018-07-16T18:29:33.184Z,29.30
2018-07-16T18:32:00.433Z,29.30
2018-07-16T18:34:27.824Z,29.20
2018-07-16T18:36:55.080Z,29.20
2018-07-16T18:39:22.349Z,29.10
2018-07-16T18:41:49.672Z,29.10
2018-07-16T18:44:16.932Z,29.00
2018-07-16T18:46:44.411Z,29.00
2018-07-16T18:49:11.956Z,28.90
2018-07-16T18:51:39.380Z,28.90
2018-07-16T18:54:06.846Z,28.80
2018-07-16T18:56:34.431Z,28.70
2018-07-16T18:59:01.883Z,28.80
2018-07-16T19:01:30.455Z,28.60
2018-07-16T19:03:58.270Z,28.60
2018-07-16T19:06:26.215Z,28.50
2018-07-16T19:08:56.914Z,28.50
2018-07-16T19:11:24.371Z,28.50
2018-07-16T19:13:51.819Z,28.40
2018-07-16T19:16:19.376Z,28.30
2018-07-16T19:18:46.903Z,28.20
2018-07-16T19:21:14.423Z,28.10
2018-07-16T19:23:41.975Z,28.00
2018-07-16T19:26:09.545Z,27.90
2018-07-16T19:28:37.093Z,27.90
2018-07-16T19:31:04.502Z,27.80
2018-07-16T19:33:31.965Z,27.70
2018-07-16T19:35:59.471Z,27.70
2018-07-16T19:38:27.124Z,27.50
2018-07-16T19:40:54.605Z,27.40
2018-07-16T19:43:22.173Z,27.30
2018-07-16T19:48:17.294Z,27.10
2018-07-16T19:50:44.813Z,27.00
2018-07-16T19:53:12.278Z,26.90
2018-07-16T19:55:39.824Z,26.90
2018-07-16T19:58:07.259Z,26.70
2018-07-16T20:00:34.823Z,26.60
2018-07-16T20:03:02.436Z,26.40
2018-07-16T20:05:29.876Z,26.30
2018-07-16T20:07:57.339Z,26.20
2018-07-16T20:12:52.340Z,25.90
2018-07-16T20:15:19.912Z,25.80
2018-07-16T20:17:47.253Z,25.60
2018-07-16T20:20:14.714Z,25.50
2018-07-16T20:22:42.185Z,25.40
2018-07-16T20:25:11.062Z,25.30
2018-07-16T20:27:38.611Z,25.10
2018-07-16T20:30:07.806Z,25.10
2018-07-16T20:32:35.395Z,25.00
2018-07-16T20:35:03.388Z,24.90
2018-07-16T20:37:31.972Z,24.90
2018-07-16T20:39:59.381Z,24.80
2018-07-16T20:42:26.827Z,24.80
2018-07-16T20:44:54.289Z,24.70
2018-07-16T20:47:21.819Z,24.70
2018-07-16T20:49:49.406Z,24.60
2018-07-16T20:52:16.823Z,24.60
2018-07-16T20:54:44.624Z,24.50
2018-07-16T20:57:12.231Z,24.40
2018-07-16T20:59:40.807Z,24.30
2018-07-16T21:02:08.311Z,24.30
2018-07-16T21:04:36.931Z,24.20
2018-07-16T21:07:04.471Z,24.10
2018-07-16T21:09:31.935Z,24.10
2018-07-16T21:11:59.507Z,24.00
2018-07-16T21:14:27.086Z,23.90
2018-07-16T21:16:55.699Z,23.80
2018-07-16T21:19:23.307Z,23.70
2018-07-16T21:21:51.844Z,23.60
2018-07-16T21:26:46.859Z,23.50
2018-07-16T21:29:14.551Z,23.40
2018-07-16T21:31:43.155Z,23.30
2018-07-16T21:34:10.551Z,23.20
2018-07-16T21:36:37.974Z,23.10
2018-07-16T21:39:06.404Z,23.10
2018-07-16T21:41:33.848Z,23.10
2018-07-16T21:44:01.437Z,23.00
2018-07-16T21:48:56.517Z,22.90
2018-07-16T21:51:23.925Z,22.90
2018-07-16T21:53:51.450Z,22.80
2018-07-16T21:56:18.907Z,22.70
2018-07-16T21:58:48.364Z,22.70
2018-07-16T22:01:15.860Z,22.60
2018-07-16T22:03:43.643Z,22.60
2018-07-16T22:06:11.047Z,22.50
2018-07-16T22:08:38.426Z,22.50
2018-07-16T22:11:05.824Z,22.40
2018-07-16T22:13:34.221Z,22.40
2018-07-16T22:16:01.628Z,22.30
2018-07-16T22:18:29.155Z,22.30
2018-07-16T22:20:56.595Z,22.20
2018-07-16T22:23:24.063Z,22.20
2018-07-16T22:25:52.577Z,22.10
2018-07-16T22:28:20.031Z,22.10
2018-07-16T22:30:47.568Z,22.00
2018-07-16T22:33:16.072Z,22.00
2018-07-16T22:35:43.620Z,22.00
2018-07-16T22:38:11.260Z,21.90
2018-07-16T22:40:38.671Z,21.90
2018-07-16T22:43:06.092Z,21.80
2018-07-16T22:45:33.467Z,21.80
2018-07-16T22:48:00.916Z,21.80
2018-07-16T22:50:28.368Z,21.70
2018-07-16T22:52:55.895Z,21.70
2018-07-16T22:55:24.423Z,21.60
2018-07-16T22:57:52.047Z,21.60
2018-07-16T23:00:19.632Z,21.50
2018-07-16T23:02:48.139Z,21.50
2018-07-16T23:05:16.626Z,21.50
2018-07-16T23:07:44.155Z,21.40
2018-07-16T23:10:11.619Z,21.40
2018-07-16T23:12:41.159Z,21.40
2018-07-16T23:15:08.636Z,21.40
2018-07-16T23:17:36.139Z,21.30
2018-07-16T23:20:05.675Z,21.30
2018-07-16T23:22:44.380Z,21.30
2018-07-16T23:25:11.931Z,21.20
2018-07-16T23:27:39.374Z,21.10
2018-07-16T23:30:06.775Z,21.10
2018-07-16T23:35:01.780Z,21.10
2018-07-16T23:37:29.211Z,21.00
2018-07-16T23:39:56.623Z,21.00
2018-07-16T23:44:52.646Z,20.90
2018-07-16T23:47:20.068Z,20.80
2018-07-16T23:49:47.647Z,20.80
2018-07-16T23:52:15.219Z,20.80
2018-07-16T23:57:10.472Z,20.80
2018-07-16T23:59:38.016Z,20.70
